Beach, North Dakota
Current Conditions -  °F | °C
As of 1:35 AM on Monday 26 Jan 2015 (Local Time) from K20U Reporting Station
Clear Clear  
Wind Chill: 31°   Ceiling: Unl
Heat Index: 39°   Visibility: 10mi
Dew Point: 36°   Wind: 15mph
Humidity: 87%   Direction: 280°W
Pressure: 29.91"   Gusts: NA
Location:  46.92°N, 104°W
Report Text: K20U 260835Z AUTO 28013KT 10SM CLR 04/02 A2991 RMK AO2
Loading
Personal Weather Stations






























Interactive Weather Map New forecast layout! Learn more

10-Day Weather Forecast

Advertisements
Track Severe Weather on mobile